sensor_id;sensor_type;location;lat;lon;timestamp;P1;durP1;ratioP1;P2;durP2;ratioP2
14592;SDS011;7383;52.354;9.756;2023-08-01T00:00:10;0.65;;;0.57;;
14592;SDS011;7383;52.354;9.756;2023-08-01T00:02:39;0.93;;;0.93;;
14592;SDS011;7383;52.354;9.756;2023-08-01T00:05:08;0.90;;;0.90;;
14592;SDS011;7383;52.354;9.756;2023-08-01T00:07:35;0.90;;;0.90;;
14592;SDS011;7383;52.354;9.756;2023-08-01T00:10:02;0.88;;;0.85;;
14592;SDS011;7383;52.354;9.756;2023-08-01T00:12:29;0.63;;;0.63;;
14592;SDS011;7383;52.354;9.756;2023-08-01T00:14:55;0.52;;;0.52;;
14592;SDS011;7383;52.354;9.756;2023-08-01T00:17:22;1.10;;;1.00;;
14592;SDS011;7383;52.354;9.756;2023-08-01T00:19:50;0.68;;;0.68;;
14592;SDS011;7383;52.354;9.756;2023-08-01T00:22:16;0.63;;;0.63;;
14592;SDS011;7383;52.354;9.756;2023-08-01T00:24:42;0.80;;;0.80;;
14592;SDS011;7383;52.354;9.756;2023-08-01T00:27:09;0.90;;;0.90;;
14592;SDS011;7383;52.354;9.756;2023-08-01T00:29:35;1.13;;;1.10;;
14592;SDS011;7383;52.354;9.756;2023-08-01T00:32:02;1.23;;;1.13;;
14592;SDS011;7383;52.354;9.756;2023-08-01T00:34:29;1.00;;;0.90;;
14592;SDS011;7383;52.354;9.756;2023-08-01T00:36:57;0.80;;;0.80;;
14592;SDS011;7383;52.354;9.756;2023-08-01T00:39:24;1.02;;;0.80;;
14592;SDS011;7383;52.354;9.756;2023-08-01T00:41:50;0.80;;;0.80;;
14592;SDS011;7383;52.354;9.756;2023-08-01T00:44:17;1.10;;;1.10;;
14592;SDS011;7383;52.354;9.756;2023-08-01T00:46:43;0.90;;;0.90;;
14592;SDS011;7383;52.354;9.756;2023-08-01T00:49:10;1.00;;;0.93;;
14592;SDS011;7383;52.354;9.756;2023-08-01T00:51:37;1.00;;;1.00;;
14592;SDS011;7383;52.354;9.756;2023-08-01T00:54:04;0.98;;;0.98;;
14592;SDS011;7383;52.354;9.756;2023-08-01T00:56:31;0.93;;;0.93;;
14592;SDS011;7383;52.354;9.756;2023-08-01T00:58:58;0.85;;;0.85;;
14592;SDS011;7383;52.354;9.756;2023-08-01T01:01:25;1.50;;;1.15;;
14592;SDS011;7383;52.354;9.756;2023-08-01T01:03:51;0.80;;;0.80;;
14592;SDS011;7383;52.354;9.756;2023-08-01T01:06:20;1.00;;;0.90;;
14592;SDS011;7383;52.354;9.756;2023-08-01T01:08:48;1.05;;;1.05;;
14592;SDS011;7383;52.354;9.756;2023-08-01T01:11:16;0.95;;;0.95;;
14592;SDS011;7383;52.354;9.756;2023-08-01T01:13:42;1.17;;;1.10;;
14592;SDS011;7383;52.354;9.756;2023-08-01T01:16:09;0.70;;;0.70;;
14592;SDS011;7383;52.354;9.756;2023-08-01T01:18:35;1.00;;;1.00;;
14592;SDS011;7383;52.354;9.756;2023-08-01T01:21:03;0.60;;;0.60;;
14592;SDS011;7383;52.354;9.756;2023-08-01T01:23:30;0.80;;;0.80;;
14592;SDS011;7383;52.354;9.756;2023-08-01T01:25:58;0.80;;;0.80;;
14592;SDS011;7383;52.354;9.756;2023-08-01T01:28:26;1.00;;;1.00;;
14592;SDS011;7383;52.354;9.756;2023-08-01T01:30:52;0.93;;;0.70;;
14592;SDS011;7383;52.354;9.756;2023-08-01T01:33:20;0.98;;;0.88;;
14592;SDS011;7383;52.354;9.756;2023-08-01T01:35:48;0.80;;;0.80;;
14592;SDS011;7383;52.354;9.756;2023-08-01T01:38:15;1.05;;;0.90;;
14592;SDS011;7383;52.354;9.756;2023-08-01T01:40:43;0.68;;;0.68;;
14592;SDS011;7383;52.354;9.756;2023-08-01T01:43:10;0.93;;;0.82;;
14592;SDS011;7383;52.354;9.756;2023-08-01T01:45:37;0.80;;;0.80;;
14592;SDS011;7383;52.354;9.756;2023-08-01T01:48:03;0.70;;;0.70;;
14592;SDS011;7383;52.354;9.756;2023-08-01T01:50:30;1.10;;;0.80;;
14592;SDS011;7383;52.354;9.756;2023-08-01T01:52:56;0.50;;;0.50;;
14592;SDS011;7383;52.354;9.756;2023-08-01T01:55:24;0.88;;;0.88;;
14592;SDS011;7383;52.354;9.756;2023-08-01T01:57:50;0.95;;;0.70;;
14592;SDS011;7383;52.354;9.756;2023-08-01T02:00:17;0.63;;;0.63;;
14592;SDS011;7383;52.354;9.756;2023-08-01T02:02:44;0.50;;;0.50;;
14592;SDS011;7383;52.354;9.756;2023-08-01T02:05:11;0.55;;;0.55;;
14592;SDS011;7383;52.354;9.756;2023-08-01T02:07:37;0.60;;;0.60;;
14592;SDS011;7383;52.354;9.756;2023-08-01T02:10:04;0.73;;;0.73;;
14592;SDS011;7383;52.354;9.756;2023-08-01T02:12:32;0.50;;;0.50;;
14592;SDS011;7383;52.354;9.756;2023-08-01T02:15:00;0.50;;;0.50;;
14592;SDS011;7383;52.354;9.756;2023-08-01T02:17:27;0.65;;;0.65;;
14592;SDS011;7383;52.354;9.756;2023-08-01T02:19:53;0.75;;;0.60;;
14592;SDS011;7383;52.354;9.756;2023-08-01T02:22:20;1.23;;;0.80;;
14592;SDS011;7383;52.354;9.756;2023-08-01T02:24:46;1.80;;;0.90;;
14592;SDS011;7383;52.354;9.756;2023-08-01T02:27:13;0.98;;;0.60;;
14592;SDS011;7383;52.354;9.756;2023-08-01T02:29:41;0.75;;;0.47;;
14592;SDS011;7383;52.354;9.756;2023-08-01T02:32:07;0.57;;;0.55;;
14592;SDS011;7383;52.354;9.756;2023-08-01T02:34:34;1.88;;;0.60;;
14592;SDS011;7383;52.354;9.756;2023-08-01T02:37:00;0.60;;;0.60;;
14592;SDS011;7383;52.354;9.756;2023-08-01T02:39:27;0.50;;;0.50;;
14592;SDS011;7383;52.354;9.756;2023-08-01T02:41:53;0.50;;;0.50;;
14592;SDS011;7383;52.354;9.756;2023-08-01T02:44:19;0.50;;;0.40;;
14592;SDS011;7383;52.354;9.756;2023-08-01T02:46:47;0.40;;;0.40;;
14592;SDS011;7383;52.354;9.756;2023-08-01T02:49:14;0.47;;;0.47;;
14592;SDS011;7383;52.354;9.756;2023-08-01T02:51:40;0.50;;;0.50;;
14592;SDS011;7383;52.354;9.756;2023-08-01T02:54:07;0.50;;;0.50;;
14592;SDS011;7383;52.354;9.756;2023-08-01T02:56:33;0.55;;;0.20;;
14592;SDS011;7383;52.354;9.756;2023-08-01T02:59:00;0.43;;;0.43;;
14592;SDS011;7383;52.354;9.756;2023-08-01T03:01:27;0.50;;;0.50;;
14592;SDS011;7383;52.354;9.756;2023-08-01T03:03:55;0.38;;;0.38;;
14592;SDS011;7383;52.354;9.756;2023-08-01T03:06:22;0.65;;;0.65;;
14592;SDS011;7383;52.354;9.756;2023-08-01T03:08:48;0.65;;;0.60;;
14592;SDS011;7383;52.354;9.756;2023-08-01T03:11:16;0.25;;;0.25;;
14592;SDS011;7383;52.354;9.756;2023-08-01T03:13:42;1.45;;;0.63;;
14592;SDS011;7383;52.354;9.756;2023-08-01T03:16:09;0.60;;;0.43;;
14592;SDS011;7383;52.354;9.756;2023-08-01T03:18:35;0.40;;;0.40;;
14592;SDS011;7383;52.354;9.756;2023-08-01T03:21:03;0.30;;;0.30;;
14592;SDS011;7383;52.354;9.756;2023-08-01T03:23:30;0.57;;;0.40;;
14592;SDS011;7383;52.354;9.756;2023-08-01T03:25:57;0.30;;;0.30;;
14592;SDS011;7383;52.354;9.756;2023-08-01T03:28:23;0.55;;;0.55;;
14592;SDS011;7383;52.354;9.756;2023-08-01T03:30:51;0.85;;;0.40;;
14592;SDS011;7383;52.354;9.756;2023-08-01T03:33:20;0.30;;;0.30;;
14592;SDS011;7383;52.354;9.756;2023-08-01T03:35:47;0.30;;;0.30;;
14592;SDS011;7383;52.354;9.756;2023-08-01T03:38:15;1.05;;;0.25;;
14592;SDS011;7383;52.354;9.756;2023-08-01T03:40:41;0.52;;;0.50;;
14592;SDS011;7383;52.354;9.756;2023-08-01T03:43:08;0.35;;;0.35;;
14592;SDS011;7383;52.354;9.756;2023-08-01T03:45:35;0.57;;;0.47;;
14592;SDS011;7383;52.354;9.756;2023-08-01T03:48:02;0.73;;;0.50;;
14592;SDS011;7383;52.354;9.756;2023-08-01T03:50:28;0.32;;;0.32;;
14592;SDS011;7383;52.354;9.756;2023-08-01T03:52:55;0.47;;;0.47;;
14592;SDS011;7383;52.354;9.756;2023-08-01T03:55:23;0.55;;;0.30;;
14592;SDS011;7383;52.354;9.756;2023-08-01T03:57:49;0.60;;;0.60;;
14592;SDS011;7383;52.354;9.756;2023-08-01T04:00:15;0.38;;;0.20;;
14592;SDS011;7383;52.354;9.756;2023-08-01T04:02:43;0.75;;;0.30;;
14592;SDS011;7383;52.354;9.756;2023-08-01T04:05:10;0.40;;;0.40;;
14592;SDS011;7383;52.354;9.756;2023-08-01T04:07:37;0.73;;;0.30;;
14592;SDS011;7383;52.354;9.756;2023-08-01T04:10:04;0.40;;;0.30;;
14592;SDS011;7383;52.354;9.756;2023-08-01T04:12:33;2.22;;;0.50;;
14592;SDS011;7383;52.354;9.756;2023-08-01T04:15:00;0.15;;;0.15;;
14592;SDS011;7383;52.354;9.756;2023-08-01T04:17:27;0.32;;;0.32;;
14592;SDS011;7383;52.354;9.756;2023-08-01T04:19:54;0.20;;;0.20;;
14592;SDS011;7383;52.354;9.756;2023-08-01T04:22:21;0.38;;;0.38;;
14592;SDS011;7383;52.354;9.756;2023-08-01T04:24:47;0.20;;;0.10;;
14592;SDS011;7383;52.354;9.756;2023-08-01T04:27:14;0.40;;;0.40;;
14592;SDS011;7383;52.354;9.756;2023-08-01T04:29:41;0.20;;;0.20;;
14592;SDS011;7383;52.354;9.756;2023-08-01T04:32:07;0.20;;;0.20;;
14592;SDS011;7383;52.354;9.756;2023-08-01T04:34:35;0.30;;;0.30;;
14592;SDS011;7383;52.354;9.756;2023-08-01T04:37:04;0.30;;;0.22;;
14592;SDS011;7383;52.354;9.756;2023-08-01T04:39:30;0.77;;;0.32;;
14592;SDS011;7383;52.354;9.756;2023-08-01T04:41:57;0.20;;;0.20;;
14592;SDS011;7383;52.354;9.756;2023-08-01T04:44:23;0.70;;;0.30;;
14592;SDS011;7383;52.354;9.756;2023-08-01T04:46:52;1.00;;;0.50;;
14592;SDS011;7383;52.354;9.756;2023-08-01T04:49:18;0.47;;;0.40;;
14592;SDS011;7383;52.354;9.756;2023-08-01T04:51:45;0.65;;;0.60;;
14592;SDS011;7383;52.354;9.756;2023-08-01T04:54:11;0.50;;;0.50;;
14592;SDS011;7383;52.354;9.756;2023-08-01T04:56:38;1.00;;;0.40;;
14592;SDS011;7383;52.354;9.756;2023-08-01T04:59:04;0.70;;;0.70;;
14592;SDS011;7383;52.354;9.756;2023-08-01T05:01:31;0.98;;;0.68;;
14592;SDS011;7383;52.354;9.756;2023-08-01T05:03:58;0.80;;;0.80;;
14592;SDS011;7383;52.354;9.756;2023-08-01T05:06:25;0.75;;;0.75;;
14592;SDS011;7383;52.354;9.756;2023-08-01T05:08:54;0.75;;;0.75;;
14592;SDS011;7383;52.354;9.756;2023-08-01T05:11:21;0.75;;;0.70;;
14592;SDS011;7383;52.354;9.756;2023-08-01T05:13:48;0.50;;;0.50;;
14592;SDS011;7383;52.354;9.756;2023-08-01T05:16:15;0.63;;;0.63;;
14592;SDS011;7383;52.354;9.756;2023-08-01T05:18:41;0.63;;;0.63;;
14592;SDS011;7383;52.354;9.756;2023-08-01T05:21:09;0.57;;;0.57;;
14592;SDS011;7383;52.354;9.756;2023-08-01T05:23:35;0.47;;;0.47;;
14592;SDS011;7383;52.354;9.756;2023-08-01T05:26:02;3.72;;;0.68;;
14592;SDS011;7383;52.354;9.756;2023-08-01T05:28:29;1.52;;;0.70;;
14592;SDS011;7383;52.354;9.756;2023-08-01T05:30:56;0.80;;;0.68;;
14592;SDS011;7383;52.354;9.756;2023-08-01T05:33:23;0.70;;;0.70;;
14592;SDS011;7383;52.354;9.756;2023-08-01T05:35:49;0.50;;;0.50;;
14592;SDS011;7383;52.354;9.756;2023-08-01T05:38:17;0.80;;;0.80;;
14592;SDS011;7383;52.354;9.756;2023-08-01T05:40:44;0.70;;;0.70;;
14592;SDS011;7383;52.354;9.756;2023-08-01T05:43:10;0.82;;;0.82;;
14592;SDS011;7383;52.354;9.756;2023-08-01T05:45:37;0.90;;;0.90;;
14592;SDS011;7383;52.354;9.756;2023-08-01T05:48:05;0.77;;;0.70;;
14592;SDS011;7383;52.354;9.756;2023-08-01T05:50:32;0.70;;;0.70;;
14592;SDS011;7383;52.354;9.756;2023-08-01T05:52:58;0.80;;;0.80;;
14592;SDS011;7383;52.354;9.756;2023-08-01T05:55:26;1.17;;;1.08;;
14592;SDS011;7383;52.354;9.756;2023-08-01T05:57:53;1.00;;;1.00;;
14592;SDS011;7383;52.354;9.756;2023-08-01T06:00:19;1.27;;;1.20;;
14592;SDS011;7383;52.354;9.756;2023-08-01T06:02:47;1.35;;;1.25;;
14592;SDS011;7383;52.354;9.756;2023-08-01T06:05:13;1.38;;;1.25;;
14592;SDS011;7383;52.354;9.756;2023-08-01T06:07:40;1.38;;;1.38;;
14592;SDS011;7383;52.354;9.756;2023-08-01T06:10:07;1.50;;;1.42;;
14592;SDS011;7383;52.354;9.756;2023-08-01T06:12:35;1.80;;;1.70;;
14592;SDS011;7383;52.354;9.756;2023-08-01T06:15:02;1.35;;;1.30;;
14592;SDS011;7383;52.354;9.756;2023-08-01T06:17:29;2.13;;;1.50;;
14592;SDS011;7383;52.354;9.756;2023-08-01T06:19:55;1.60;;;1.50;;
14592;SDS011;7383;52.354;9.756;2023-08-01T06:22:22;1.85;;;1.75;;
14592;SDS011;7383;52.354;9.756;2023-08-01T06:24:48;1.95;;;1.85;;
14592;SDS011;7383;52.354;9.756;2023-08-01T06:27:15;2.00;;;1.90;;
14592;SDS011;7383;52.354;9.756;2023-08-01T06:29:44;1.73;;;1.63;;
14592;SDS011;7383;52.354;9.756;2023-08-01T06:32:11;2.17;;;2.03;;
14592;SDS011;7383;52.354;9.756;2023-08-01T06:34:38;2.10;;;2.00;;
14592;SDS011;7383;52.354;9.756;2023-08-01T06:37:05;2.20;;;2.00;;
14592;SDS011;7383;52.354;9.756;2023-08-01T06:39:31;2.10;;;2.00;;
14592;SDS011;7383;52.354;9.756;2023-08-01T06:41:58;2.30;;;2.20;;
14592;SDS011;7383;52.354;9.756;2023-08-01T06:44:24;2.45;;;2.25;;
14592;SDS011;7383;52.354;9.756;2023-08-01T06:46:52;2.80;;;2.22;;
14592;SDS011;7383;52.354;9.756;2023-08-01T06:49:18;2.35;;;2.15;;
14592;SDS011;7383;52.354;9.756;2023-08-01T06:51:45;2.05;;;1.95;;
14592;SDS011;7383;52.354;9.756;2023-08-01T06:54:12;2.10;;;1.90;;
14592;SDS011;7383;52.354;9.756;2023-08-01T06:56:38;2.00;;;1.90;;
14592;SDS011;7383;52.354;9.756;2023-08-01T06:59:04;1.80;;;1.70;;
14592;SDS011;7383;52.354;9.756;2023-08-01T07:01:32;2.20;;;2.00;;
14592;SDS011;7383;52.354;9.756;2023-08-01T07:04:01;2.13;;;2.03;;
14592;SDS011;7383;52.354;9.756;2023-08-01T07:06:28;2.50;;;2.30;;
14592;SDS011;7383;52.354;9.756;2023-08-01T07:08:54;2.50;;;2.30;;
14592;SDS011;7383;52.354;9.756;2023-08-01T07:11:22;2.38;;;2.25;;
14592;SDS011;7383;52.354;9.756;2023-08-01T07:13:49;2.40;;;2.25;;
14592;SDS011;7383;52.354;9.756;2023-08-01T07:16:15;3.22;;;3.03;;
14592;SDS011;7383;52.354;9.756;2023-08-01T07:18:42;2.80;;;2.60;;
14592;SDS011;7383;52.354;9.756;2023-08-01T07:21:09;3.90;;;2.80;;
14592;SDS011;7383;52.354;9.756;2023-08-01T07:23:36;4.22;;;3.92;;
14592;SDS011;7383;52.354;9.756;2023-08-01T07:26:03;3.45;;;3.15;;
14592;SDS011;7383;52.354;9.756;2023-08-01T07:28:29;4.38;;;3.63;;
14592;SDS011;7383;52.354;9.756;2023-08-01T07:30:59;3.50;;;3.20;;
14592;SDS011;7383;52.354;9.756;2023-08-01T07:33:26;3.47;;;3.20;;
14592;SDS011;7383;52.354;9.756;2023-08-01T07:35:52;3.65;;;3.35;;
14592;SDS011;7383;52.354;9.756;2023-08-01T07:38:20;3.50;;;3.20;;
14592;SDS011;7383;52.354;9.756;2023-08-01T07:40:47;3.70;;;3.40;;
14592;SDS011;7383;52.354;9.756;2023-08-01T07:43:14;4.13;;;3.47;;
14592;SDS011;7383;52.354;9.756;2023-08-01T07:45:40;4.20;;;3.60;;
14592;SDS011;7383;52.354;9.756;2023-08-01T07:48:07;3.85;;;3.20;;
14592;SDS011;7383;52.354;9.756;2023-08-01T07:50:33;4.50;;;3.85;;
14592;SDS011;7383;52.354;9.756;2023-08-01T07:53:00;4.38;;;3.65;;
14592;SDS011;7383;52.354;9.756;2023-08-01T07:55:28;3.90;;;3.60;;
14592;SDS011;7383;52.354;9.756;2023-08-01T07:57:54;3.80;;;3.50;;
14592;SDS011;7383;52.354;9.756;2023-08-01T08:00:21;4.20;;;3.58;;
14592;SDS011;7383;52.354;9.756;2023-08-01T08:02:47;3.65;;;3.35;;
14592;SDS011;7383;52.354;9.756;2023-08-01T08:05:14;3.78;;;3.47;;
14592;SDS011;7383;52.354;9.756;2023-08-01T08:07:40;3.60;;;3.30;;
14592;SDS011;7383;52.354;9.756;2023-08-01T08:10:07;3.60;;;3.30;;
14592;SDS011;7383;52.354;9.756;2023-08-01T08:12:35;3.70;;;3.35;;
14592;SDS011;7383;52.354;9.756;2023-08-01T08:15:02;4.30;;;3.90;;
14592;SDS011;7383;52.354;9.756;2023-08-01T08:17:29;4.15;;;3.45;;
14592;SDS011;7383;52.354;9.756;2023-08-01T08:19:55;3.92;;;3.33;;
14592;SDS011;7383;52.354;9.756;2023-08-01T08:22:22;3.42;;;3.13;;
14592;SDS011;7383;52.354;9.756;2023-08-01T08:24:48;4.72;;;3.30;;
14592;SDS011;7383;52.354;9.756;2023-08-01T08:27:15;3.55;;;3.20;;
14592;SDS011;7383;52.354;9.756;2023-08-01T08:29:42;3.00;;;2.80;;
14592;SDS011;7383;52.354;9.756;2023-08-01T08:32:09;3.10;;;2.80;;
14592;SDS011;7383;52.354;9.756;2023-08-01T08:34:35;2.85;;;2.65;;
14592;SDS011;7383;52.354;9.756;2023-08-01T08:37:02;4.63;;;3.20;;
14592;SDS011;7383;52.354;9.756;2023-08-01T08:39:29;3.20;;;2.90;;
14592;SDS011;7383;52.354;9.756;2023-08-01T08:41:55;3.38;;;2.80;;
14592;SDS011;7383;52.354;9.756;2023-08-01T08:44:22;3.17;;;2.88;;
14592;SDS011;7383;52.354;9.756;2023-08-01T08:46:52;2.70;;;2.50;;
14592;SDS011;7383;52.354;9.756;2023-08-01T08:49:20;2.80;;;2.60;;
14592;SDS011;7383;52.354;9.756;2023-08-01T08:51:48;3.00;;;2.70;;
14592;SDS011;7383;52.354;9.756;2023-08-01T08:54:16;3.08;;;2.67;;
14592;SDS011;7383;52.354;9.756;2023-08-01T08:56:43;2.75;;;2.55;;
14592;SDS011;7383;52.354;9.756;2023-08-01T08:59:13;2.75;;;2.55;;
14592;SDS011;7383;52.354;9.756;2023-08-01T09:01:44;3.50;;;2.58;;
14592;SDS011;7383;52.354;9.756;2023-08-01T09:04:15;2.58;;;2.38;;
14592;SDS011;7383;52.354;9.756;2023-08-01T09:06:43;2.88;;;2.55;;
14592;SDS011;7383;52.354;9.756;2023-08-01T09:09:12;2.53;;;2.33;;
14592;SDS011;7383;52.354;9.756;2023-08-01T09:11:44;2.15;;;1.95;;
14592;SDS011;7383;52.354;9.756;2023-08-01T09:14:12;2.55;;;2.30;;
14592;SDS011;7383;52.354;9.756;2023-08-01T09:16:39;2.60;;;2.40;;
14592;SDS011;7383;52.354;9.756;2023-08-01T09:19:07;2.17;;;2.05;;
14592;SDS011;7383;52.354;9.756;2023-08-01T09:21:35;2.72;;;2.35;;
14592;SDS011;7383;52.354;9.756;2023-08-01T09:24:10;2.60;;;2.25;;
14592;SDS011;7383;52.354;9.756;2023-08-01T09:26:37;3.05;;;2.40;;
14592;SDS011;7383;52.354;9.756;2023-08-01T09:29:04;2.38;;;1.95;;
14592;SDS011;7383;52.354;9.756;2023-08-01T09:31:32;1.80;;;1.70;;
14592;SDS011;7383;52.354;9.756;2023-08-01T09:34:00;2.60;;;2.08;;
14592;SDS011;7383;52.354;9.756;2023-08-01T09:36:26;2.08;;;1.88;;
14592;SDS011;7383;52.354;9.756;2023-08-01T09:38:59;2.38;;;1.90;;
14592;SDS011;7383;52.354;9.756;2023-08-01T09:41:27;2.15;;;1.95;;
14592;SDS011;7383;52.354;9.756;2023-08-01T09:43:54;2.30;;;2.10;;
14592;SDS011;7383;52.354;9.756;2023-08-01T09:46:21;2.20;;;1.92;;
14592;SDS011;7383;52.354;9.756;2023-08-01T09:48:48;2.22;;;2.03;;
14592;SDS011;7383;52.354;9.756;2023-08-01T09:51:15;2.10;;;2.00;;
14592;SDS011;7383;52.354;9.756;2023-08-01T09:53:46;2.28;;;2.08;;
14592;SDS011;7383;52.354;9.756;2023-08-01T09:56:15;1.90;;;1.80;;
14592;SDS011;7383;52.354;9.756;2023-08-01T09:58:45;1.90;;;1.80;;
14592;SDS011;7383;52.354;9.756;2023-08-01T10:01:12;2.00;;;1.90;;
14592;SDS011;7383;52.354;9.756;2023-08-01T10:03:40;1.75;;;1.63;;
14592;SDS011;7383;52.354;9.756;2023-08-01T10:06:10;2.05;;;1.70;;
14592;SDS011;7383;52.354;9.756;2023-08-01T10:08:38;1.88;;;1.77;;
14592;SDS011;7383;52.354;9.756;2023-08-01T10:11:05;2.30;;;1.65;;
14592;SDS011;7383;52.354;9.756;2023-08-01T10:13:34;1.75;;;1.63;;
14592;SDS011;7383;52.354;9.756;2023-08-01T10:16:02;2.22;;;2.03;;
14592;SDS011;7383;52.354;9.756;2023-08-01T10:18:29;1.70;;;1.60;;
14592;SDS011;7383;52.354;9.756;2023-08-01T10:20:56;1.67;;;1.58;;
14592;SDS011;7383;52.354;9.756;2023-08-01T10:23:23;1.50;;;1.40;;
14592;SDS011;7383;52.354;9.756;2023-08-01T10:25:51;2.00;;;1.55;;
14592;SDS011;7383;52.354;9.756;2023-08-01T10:28:19;1.60;;;1.50;;
14592;SDS011;7383;52.354;9.756;2023-08-01T10:30:47;1.77;;;1.67;;
14592;SDS011;7383;52.354;9.756;2023-08-01T10:33:13;1.58;;;1.45;;
14592;SDS011;7383;52.354;9.756;2023-08-01T10:35:40;2.38;;;1.67;;
14592;SDS011;7383;52.354;9.756;2023-08-01T10:38:07;1.50;;;1.40;;
14592;SDS011;7383;52.354;9.756;2023-08-01T10:40:35;2.08;;;1.70;;
14592;SDS011;7383;52.354;9.756;2023-08-01T10:43:02;2.85;;;1.90;;
14592;SDS011;7383;52.354;9.756;2023-08-01T10:45:29;2.13;;;1.85;;
14592;SDS011;7383;52.354;9.756;2023-08-01T10:48:08;1.67;;;1.58;;
14592;SDS011;7383;52.354;9.756;2023-08-01T10:50:36;2.10;;;1.90;;
14592;SDS011;7383;52.354;9.756;2023-08-01T10:53:04;2.75;;;1.77;;
14592;SDS011;7383;52.354;9.756;2023-08-01T10:55:39;1.83;;;1.73;;
14592;SDS011;7383;52.354;9.756;2023-08-01T10:58:11;1.67;;;1.58;;
14592;SDS011;7383;52.354;9.756;2023-08-01T11:06:54;2.17;;;1.65;;
14592;SDS011;7383;52.354;9.756;2023-08-01T11:09:22;2.25;;;2.00;;
14592;SDS011;7383;52.354;9.756;2023-08-01T11:11:51;2.53;;;1.70;;
14592;SDS011;7383;52.354;9.756;2023-08-01T11:14:19;1.73;;;1.63;;
14592;SDS011;7383;52.354;9.756;2023-08-01T11:16:47;2.08;;;1.67;;
14592;SDS011;7383;52.354;9.756;2023-08-01T11:19:18;1.65;;;1.55;;
14592;SDS011;7383;52.354;9.756;2023-08-01T11:21:46;1.55;;;1.45;;
14592;SDS011;7383;52.354;9.756;2023-08-01T11:24:14;1.63;;;1.52;;
14592;SDS011;7383;52.354;9.756;2023-08-01T11:26:44;1.77;;;1.40;;
14592;SDS011;7383;52.354;9.756;2023-08-01T11:29:18;2.15;;;1.40;;
14592;SDS011;7383;52.354;9.756;2023-08-01T11:31:52;1.88;;;1.55;;
14592;SDS011;7383;52.354;9.756;2023-08-01T11:34:19;1.92;;;1.83;;
14592;SDS011;7383;52.354;9.756;2023-08-01T11:36:46;1.83;;;1.65;;
14592;SDS011;7383;52.354;9.756;2023-08-01T11:39:14;2.05;;;1.85;;
14592;SDS011;7383;52.354;9.756;2023-08-01T11:41:41;1.70;;;1.60;;
14592;SDS011;7383;52.354;9.756;2023-08-01T11:44:09;1.60;;;1.50;;
14592;SDS011;7383;52.354;9.756;2023-08-01T11:46:36;1.35;;;1.35;;
14592;SDS011;7383;52.354;9.756;2023-08-01T11:49:04;1.70;;;1.60;;
14592;SDS011;7383;52.354;9.756;2023-08-01T11:51:38;1.70;;;1.60;;
14592;SDS011;7383;52.354;9.756;2023-08-01T11:54:06;2.75;;;1.95;;
14592;SDS011;7383;52.354;9.756;2023-08-01T11:56:36;1.92;;;1.70;;
14592;SDS011;7383;52.354;9.756;2023-08-01T11:59:10;1.98;;;1.85;;
14592;SDS011;7383;52.354;9.756;2023-08-01T12:01:37;2.00;;;1.90;;
14592;SDS011;7383;52.354;9.756;2023-08-01T12:04:04;1.70;;;1.60;;
14592;SDS011;7383;52.354;9.756;2023-08-01T12:06:32;1.80;;;1.70;;
14592;SDS011;7383;52.354;9.756;2023-08-01T12:09:05;1.92;;;1.83;;
14592;SDS011;7383;52.354;9.756;2023-08-01T12:11:33;1.75;;;1.65;;
14592;SDS011;7383;52.354;9.756;2023-08-01T12:14:02;1.73;;;1.63;;
14592;SDS011;7383;52.354;9.756;2023-08-01T12:16:29;2.10;;;1.90;;
14592;SDS011;7383;52.354;9.756;2023-08-01T12:18:56;2.03;;;1.88;;
14592;SDS011;7383;52.354;9.756;2023-08-01T12:21:23;1.80;;;1.70;;
14592;SDS011;7383;52.354;9.756;2023-08-01T12:23:52;2.00;;;1.80;;
14592;SDS011;7383;52.354;9.756;2023-08-01T12:26:19;1.90;;;1.80;;
14592;SDS011;7383;52.354;9.756;2023-08-01T12:28:45;2.38;;;1.80;;
14592;SDS011;7383;52.354;9.756;2023-08-01T12:31:16;2.20;;;2.10;;
14592;SDS011;7383;52.354;9.756;2023-08-01T12:33:43;1.90;;;1.80;;
14592;SDS011;7383;52.354;9.756;2023-08-01T12:36:10;1.73;;;1.63;;
14592;SDS011;7383;52.354;9.756;2023-08-01T12:38:36;1.55;;;1.45;;
14592;SDS011;7383;52.354;9.756;2023-08-01T12:41:03;1.50;;;1.40;;
14592;SDS011;7383;52.354;9.756;2023-08-01T12:43:30;1.50;;;1.40;;
14592;SDS011;7383;52.354;9.756;2023-08-01T12:45:59;1.38;;;1.27;;
14592;SDS011;7383;52.354;9.756;2023-08-01T12:48:27;1.50;;;1.40;;
14592;SDS011;7383;52.354;9.756;2023-08-01T12:50:54;1.80;;;1.70;;
14592;SDS011;7383;52.354;9.756;2023-08-01T12:53:21;1.60;;;1.50;;
14592;SDS011;7383;52.354;9.756;2023-08-01T12:55:49;1.65;;;1.55;;
14592;SDS011;7383;52.354;9.756;2023-08-01T12:58:16;1.73;;;1.63;;
14592;SDS011;7383;52.354;9.756;2023-08-01T13:00:44;1.95;;;1.85;;
14592;SDS011;7383;52.354;9.756;2023-08-01T13:03:10;2.00;;;1.80;;
14592;SDS011;7383;52.354;9.756;2023-08-01T13:05:39;1.73;;;1.63;;
14592;SDS011;7383;52.354;9.756;2023-08-01T13:08:07;1.92;;;1.83;;
14592;SDS011;7383;52.354;9.756;2023-08-01T13:10:34;1.83;;;1.70;;
14592;SDS011;7383;52.354;9.756;2023-08-01T13:13:01;1.58;;;1.48;;
14592;SDS011;7383;52.354;9.756;2023-08-01T13:15:29;1.80;;;1.70;;
14592;SDS011;7383;52.354;9.756;2023-08-01T13:17:56;2.20;;;1.80;;
14592;SDS011;7383;52.354;9.756;2023-08-01T13:20:22;2.50;;;1.85;;
14592;SDS011;7383;52.354;9.756;2023-08-01T13:22:51;1.67;;;1.58;;
14592;SDS011;7383;52.354;9.756;2023-08-01T13:25:18;2.55;;;1.70;;
14592;SDS011;7383;52.354;9.756;2023-08-01T13:27:45;3.00;;;1.58;;
14592;SDS011;7383;52.354;9.756;2023-08-01T13:30:11;2.00;;;1.80;;
14592;SDS011;7383;52.354;9.756;2023-08-01T13:32:39;1.98;;;1.75;;
14592;SDS011;7383;52.354;9.756;2023-08-01T13:35:06;1.60;;;1.50;;
14592;SDS011;7383;52.354;9.756;2023-08-01T13:37:33;1.60;;;1.50;;
14592;SDS011;7383;52.354;9.756;2023-08-01T13:40:01;1.67;;;1.45;;
14592;SDS011;7383;52.354;9.756;2023-08-01T13:42:28;1.92;;;1.60;;
14592;SDS011;7383;52.354;9.756;2023-08-01T13:44:55;3.03;;;1.80;;
14592;SDS011;7383;52.354;9.756;2023-08-01T13:47:22;1.85;;;1.60;;
14592;SDS011;7383;52.354;9.756;2023-08-01T13:49:49;1.40;;;1.30;;
14592;SDS011;7383;52.354;9.756;2023-08-01T13:52:15;1.40;;;1.30;;
14592;SDS011;7383;52.354;9.756;2023-08-01T13:54:42;1.63;;;1.35;;
14592;SDS011;7383;52.354;9.756;2023-08-01T13:57:10;1.65;;;1.55;;
14592;SDS011;7383;52.354;9.756;2023-08-01T13:59:39;1.00;;;1.00;;
14592;SDS011;7383;52.354;9.756;2023-08-01T14:02:07;1.38;;;1.00;;
14592;SDS011;7383;52.354;9.756;2023-08-01T14:04:33;0.82;;;0.82;;
14592;SDS011;7383;52.354;9.756;2023-08-01T14:07:00;0.80;;;0.80;;
14592;SDS011;7383;52.354;9.756;2023-08-01T14:09:27;1.20;;;1.05;;
14592;SDS011;7383;52.354;9.756;2023-08-01T14:11:57;2.00;;;1.90;;
14592;SDS011;7383;52.354;9.756;2023-08-01T14:14:25;1.30;;;1.17;;
14592;SDS011;7383;52.354;9.756;2023-08-01T14:16:51;1.23;;;1.13;;
14592;SDS011;7383;52.354;9.756;2023-08-01T14:19:18;1.45;;;1.35;;
14592;SDS011;7383;52.354;9.756;2023-08-01T14:21:45;1.17;;;1.08;;
14592;SDS011;7383;52.354;9.756;2023-08-01T14:24:11;0.88;;;0.88;;
14592;SDS011;7383;52.354;9.756;2023-08-01T14:26:38;1.35;;;1.23;;
14592;SDS011;7383;52.354;9.756;2023-08-01T14:29:06;1.73;;;1.30;;
14592;SDS011;7383;52.354;9.756;2023-08-01T14:31:34;0.85;;;0.85;;
14592;SDS011;7383;52.354;9.756;2023-08-01T14:34:01;1.20;;;1.10;;
14592;SDS011;7383;52.354;9.756;2023-08-01T14:36:28;0.95;;;0.90;;
14592;SDS011;7383;52.354;9.756;2023-08-01T14:38:54;0.90;;;0.90;;
14592;SDS011;7383;52.354;9.756;2023-08-01T14:41:21;0.70;;;0.70;;
14592;SDS011;7383;52.354;9.756;2023-08-01T14:43:48;0.93;;;0.93;;
14592;SDS011;7383;52.354;9.756;2023-08-01T14:46:15;1.02;;;0.93;;
14592;SDS011;7383;52.354;9.756;2023-08-01T14:48:43;0.82;;;0.75;;
14592;SDS011;7383;52.354;9.756;2023-08-01T14:51:09;0.80;;;0.80;;
14592;SDS011;7383;52.354;9.756;2023-08-01T14:53:36;0.55;;;0.55;;
14592;SDS011;7383;52.354;9.756;2023-08-01T14:56:02;0.60;;;0.60;;
14592;SDS011;7383;52.354;9.756;2023-08-01T14:58:31;0.77;;;0.60;;
14592;SDS011;7383;52.354;9.756;2023-08-01T15:01:04;0.60;;;0.60;;
14592;SDS011;7383;52.354;9.756;2023-08-01T15:03:30;0.70;;;0.70;;
14592;SDS011;7383;52.354;9.756;2023-08-01T15:05:58;0.60;;;0.60;;